createdAt,value
2022-08-28T02:19:16.192Z,98898.72
2022-08-28T02:21:43.789Z,98909.13
2022-08-28T02:24:10.962Z,98889.97
2022-08-28T02:29:28.082Z,98890.16
2022-08-28T02:31:58.006Z,98880.56
2022-08-28T02:34:25.375Z,98881.25
2022-08-28T02:36:55.077Z,98850.16
2022-08-28T02:39:23.677Z,98837.84
2022-08-28T02:41:51.600Z,98820.22
2022-08-28T02:44:19.961Z,98789.72
2022-08-28T02:50:33.555Z,98754.00
2022-08-28T02:53:02.521Z,98744.31
2022-08-28T02:55:34.212Z,98742.47
2022-08-28T02:58:02.626Z,98772.16
2022-08-28T03:00:30.130Z,98738.91
2022-08-28T03:02:57.773Z,98742.09
2022-08-28T03:05:28.474Z,98760.81
2022-08-28T03:08:22.551Z,98768.69
2022-08-28T03:10:58.308Z,98774.78
2022-08-28T03:13:38.469Z,98746.84
2022-08-28T03:16:09.297Z,98764.84
2022-08-28T03:18:46.452Z,98754.47
2022-08-28T03:24:11.498Z,98751.09
2022-08-28T03:26:47.865Z,98738.09
2022-08-28T03:29:23.052Z,98742.09
2022-08-28T03:32:00.419Z,98721.50
2022-08-28T03:37:19.645Z,98732.19
2022-08-28T03:40:00.334Z,98746.13
2022-08-28T03:42:53.523Z,98753.72
2022-08-28T03:45:37.890Z,98774.13
2022-08-28T03:54:31.874Z,98752.19
2022-08-28T03:56:59.225Z,98767.94
2022-08-28T03:59:29.784Z,98758.75
2022-08-28T04:02:01.599Z,98745.38
2022-08-28T04:04:29.390Z,98752.00
2022-08-28T04:06:57.668Z,98751.19
2022-08-28T04:09:26.489Z,98759.78
2022-08-28T04:11:54.428Z,98760.81
2022-08-28T04:14:22.188Z,98780.31
2022-08-28T04:16:49.904Z,98761.94
2022-08-28T04:19:17.314Z,98780.50
2022-08-28T04:21:45.695Z,98759.13
2022-08-28T04:24:13.386Z,98755.00
2022-08-28T04:26:42.099Z,98763.34
2022-08-28T04:34:10.835Z,98774.94
2022-08-28T04:36:38.706Z,98757.25
2022-08-28T04:39:06.376Z,98752.47
2022-08-28T04:41:37.194Z,98750.78
2022-08-28T04:44:05.107Z,98748.25
2022-08-28T05:31:50.589Z,98755.38
2022-08-28T05:34:18.869Z,98767.81
2022-08-28T05:36:46.061Z,98783.34
2022-08-28T05:39:14.521Z,98771.66
2022-08-28T05:45:01.582Z,98775.13
2022-08-28T05:47:31.924Z,98774.19
2022-08-28T05:53:16.287Z,98786.06
2022-08-28T05:55:44.351Z,98813.16
2022-08-28T05:58:32.562Z,98808.84
2022-08-28T06:01:09.954Z,98817.34
2022-08-28T06:03:37.818Z,98818.13
2022-08-28T06:06:05.230Z,98812.78
2022-08-28T06:08:33.134Z,98806.53
2022-08-28T06:11:02.502Z,98821.31
2022-08-28T06:13:32.087Z,98816.81
2022-08-28T06:15:59.430Z,98799.84
2022-08-28T06:18:26.622Z,98799.00
2022-08-28T06:20:53.850Z,98807.53
2022-08-28T06:23:24.042Z,98797.25
2022-08-28T06:25:51.703Z,98800.44
2022-08-28T06:28:23.469Z,98806.88
2022-08-28T06:31:17.974Z,98823.38
2022-08-28T06:33:38.791Z,98804.00
2022-08-28T06:36:06.166Z,98795.28
2022-08-28T06:38:34.056Z,98806.44
2022-08-28T06:41:02.719Z,98815.13
2022-08-28T06:43:30.044Z,98810.34
2022-08-28T06:45:57.982Z,98820.56
2022-08-28T06:48:27.647Z,98812.13
2022-08-28T06:50:55.266Z,98808.69
2022-08-28T06:53:25.006Z,98829.66
2022-08-28T06:56:08.795Z,98833.88
2022-08-28T06:58:43.412Z,98831.44
2022-08-28T07:01:24.547Z,98837.28
2022-08-28T07:03:53.357Z,98838.97
2022-08-28T07:06:21.736Z,98826.19
2022-08-28T07:08:48.921Z,98840.47
2022-08-28T07:11:28.117Z,98832.59
2022-08-28T07:13:55.552Z,98837.19
2022-08-28T07:16:32.973Z,98830.25
2022-08-28T07:19:31.154Z,98825.06
2022-08-28T07:22:04.608Z,98845.63
2022-08-28T07:24:31.482Z,98850.91
2022-08-28T07:27:01.736Z,98853.41
2022-08-28T07:29:33.271Z,98831.84
2022-08-28T07:32:02.079Z,98824.91
2022-08-28T07:34:29.287Z,98832.59
2022-08-28T07:36:58.518Z,98828.28
2022-08-28T07:39:26.718Z,98841.59
2022-08-28T07:41:56.285Z,98853.50
2022-08-28T07:44:41.840Z,98836.44
2022-08-28T07:47:09.837Z,98845.88
2022-08-28T07:49:37.355Z,98837.47
2022-08-28T07:52:41.561Z,98852.66
2022-08-28T07:55:09.484Z,98839.16
2022-08-28T07:57:36.678Z,98862.38
2022-08-28T08:00:12.221Z,98849.84
2022-08-28T08:02:39.307Z,98872.78
2022-08-28T08:05:07.602Z,98870.06
2022-08-28T08:07:52.558Z,98860.91
2022-08-28T08:10:23.999Z,98858.19
2022-08-28T08:12:55.053Z,98852.44
2022-08-28T08:15:44.214Z,98857.41
2022-08-28T08:18:24.612Z,98860.91
2022-08-28T08:21:29.649Z,98857.59
2022-08-28T08:23:58.515Z,98861.00
2022-08-28T08:26:47.008Z,98866.03
2022-08-28T08:44:33.531Z,98877.34
2022-08-28T08:47:41.721Z,98893.28
2022-08-28T08:50:17.213Z,98908.84
2022-08-28T08:53:05.569Z,98903.41
2022-08-28T08:55:54.845Z,98882.41
2022-08-28T08:58:38.740Z,98882.06
2022-08-28T09:36:39.765Z,98932.66
2022-08-28T09:39:57.702Z,98922.63
2022-08-28T09:43:02.053Z,98920.19
2022-08-28T10:10:18.499Z,98950.25
2022-08-28T10:13:01.606Z,98943.75
2022-08-28T10:39:32.243Z,98934.19
2022-08-28T10:45:40.953Z,98914.69
2022-08-28T10:48:43.575Z,98905.13
2022-08-28T10:51:51.326Z,98936.81
2022-08-28T10:58:01.613Z,98908.53
2022-08-28T11:00:36.655Z,98907.72
2022-08-28T11:03:22.191Z,98919.44
2022-08-28T11:06:11.793Z,98911.84
2022-08-28T11:08:39.934Z,98902.19
2022-08-28T11:11:32.039Z,98897.78
2022-08-28T11:14:00.724Z,98897.28
2022-08-28T11:20:13.806Z,98915.25
2022-08-28T11:22:43.947Z,98906.50
2022-08-28T11:25:32.711Z,98898.78
2022-08-28T11:28:21.724Z,98917.19
2022-08-28T11:31:19.001Z,98926.84
2022-08-28T11:34:05.191Z,98898.09
2022-08-28T11:36:32.825Z,98923.16
2022-08-28T11:39:38.963Z,98895.13
2022-08-28T11:42:38.071Z,98925.38
2022-08-28T11:45:46.603Z,98924.69
2022-08-28T11:52:08.830Z,98905.94
2022-08-28T12:01:50.863Z,98913.94
2022-08-28T12:05:03.266Z,98908.66
2022-08-28T12:07:44.793Z,98888.47
2022-08-28T12:10:49.667Z,98910.72
2022-08-28T13:52:45.908Z,98861.25
2022-08-28T15:17:41.069Z,98839.72
2022-08-28T15:28:13.646Z,98813.56
2022-08-28T15:31:21.834Z,98828.94
2022-08-28T15:53:11.740Z,98860.63
2022-08-28T15:55:39.044Z,98851.41
2022-08-28T15:58:14.012Z,98865.06
2022-08-28T16:10:26.965Z,98849.56
2022-08-28T16:16:40.772Z,98845.47
2022-08-28T16:26:16.329Z,98869.44
2022-08-28T16:42:06.244Z,98840.00
2022-08-28T16:51:40.206Z,98892.97
2022-08-28T17:00:16.702Z,98881.72
2022-08-28T17:06:47.909Z,98886.94
2022-08-28T17:58:44.277Z,98930.41
2022-08-28T18:05:15.731Z,98940.00
2022-08-28T18:14:24.121Z,98936.34
2022-08-28T18:17:22.780Z,98920.97
2022-08-28T18:20:07.875Z,98948.31
2022-08-28T18:22:40.928Z,98937.59
2022-08-28T18:25:32.857Z,98938.84
2022-08-28T18:28:14.916Z,98955.38
2022-08-28T18:30:47.161Z,98944.59
2022-08-28T18:33:17.140Z,98953.03
2022-08-28T18:35:49.194Z,98944.16
2022-08-28T18:38:17.028Z,98978.41
2022-08-28T18:40:45.065Z,98976.06
2022-08-28T18:43:30.977Z,98975.84
2022-08-28T18:46:00.051Z,98967.63
2022-08-28T18:48:28.568Z,98974.59
2022-08-28T18:50:56.087Z,98977.63
2022-08-28T18:53:23.521Z,99001.50
2022-08-28T18:56:29.547Z,98989.16
2022-08-28T18:59:04.826Z,98989.03
2022-08-28T19:01:33.192Z,98984.94
2022-08-28T19:04:29.674Z,99009.34
2022-08-28T19:06:59.562Z,99019.25
2022-08-28T19:13:13.057Z,98988.66
2022-08-28T19:15:51.070Z,99008.34
2022-08-28T19:18:19.889Z,98992.22
2022-08-28T19:20:48.555Z,99004.75
2022-08-28T19:23:17.903Z,99004.22
2022-08-28T19:25:45.209Z,98999.34
2022-08-28T19:28:12.497Z,99001.59
2022-08-28T19:30:39.969Z,99003.47
2022-08-28T19:33:07.245Z,98990.16
2022-08-28T19:35:34.390Z,99003.97
2022-08-28T19:38:02.458Z,99011.56
2022-08-28T19:40:30.049Z,98999.09
2022-08-28T19:42:57.625Z,98994.84
2022-08-28T19:45:24.845Z,99002.84
2022-08-28T19:47:52.597Z,98990.00
2022-08-28T19:50:19.993Z,98996.09
2022-08-28T19:52:47.223Z,99003.13
2022-08-28T19:55:20.124Z,98990.28
2022-08-28T19:57:48.587Z,99009.53
2022-08-28T20:00:20.368Z,99028.28
2022-08-28T20:02:48.371Z,99010.75
2022-08-28T20:05:15.864Z,99031.19
2022-08-28T20:07:43.058Z,99006.72
2022-08-28T20:10:10.686Z,99019.78
2022-08-28T20:12:48.533Z,99021.84
2022-08-28T20:15:38.126Z,99044.59
2022-08-28T20:18:10.464Z,99033.09
2022-08-28T20:20:38.224Z,99041.81
2022-08-28T20:23:06.209Z,99037.22
2022-08-28T20:25:37.925Z,99026.34
2022-08-28T20:28:05.162Z,99025.81
2022-08-28T20:30:33.355Z,99028.53
2022-08-28T20:33:00.829Z,99031.97
2022-08-28T20:35:29.606Z,99025.13
2022-08-28T20:37:57.874Z,99031.41
2022-08-28T20:40:25.225Z,99035.66
2022-08-28T20:42:52.737Z,99026.34
2022-08-28T20:45:20.176Z,99042.56
2022-08-28T20:47:47.377Z,99042.97
2022-08-28T20:50:16.647Z,99038.75
2022-08-28T20:52:43.746Z,99035.66
2022-08-28T20:55:15.742Z,99038.19
2022-08-28T20:57:42.943Z,99034.22
2022-08-28T21:00:11.112Z,99043.16
2022-08-28T21:02:38.944Z,99040.31
2022-08-28T21:05:06.620Z,99061.63
2022-08-28T21:07:35.660Z,99074.66
2022-08-28T21:10:07.740Z,99043.22
2022-08-28T21:12:36.462Z,99046.81
2022-08-28T21:15:05.120Z,99044.09
2022-08-28T21:17:32.682Z,99039.84
2022-08-28T21:20:05.213Z,99043.91
2022-08-28T21:22:34.561Z,99040.09
2022-08-28T21:25:02.704Z,99023.03
2022-08-28T21:27:30.506Z,99040.69
2022-08-28T21:29:58.921Z,99035.13
2022-08-28T21:32:26.781Z,99057.94
2022-08-28T21:34:55.299Z,99032.78
